sensor_id;sensor_type;location;lat;lon;timestamp;P1;durP1;ratioP1;P2;durP2;ratioP2
20179;SDS011;10249;48.900;9.090;2023-03-01T00:02:07;12.30;;;11.80;;
20179;SDS011;10249;48.900;9.090;2023-03-01T00:04:34;11.90;;;11.50;;
20179;SDS011;10249;48.900;9.090;2023-03-01T00:07:01;12.20;;;11.80;;
20179;SDS011;10249;48.900;9.090;2023-03-01T00:09:28;12.10;;;11.70;;
20179;SDS011;10249;48.900;9.090;2023-03-01T00:11:55;12.23;;;11.83;;
20179;SDS011;10249;48.900;9.090;2023-03-01T00:14:24;12.37;;;11.97;;
20179;SDS011;10249;48.900;9.090;2023-03-01T00:16:51;12.10;;;11.70;;
20179;SDS011;10249;48.900;9.090;2023-03-01T00:19:19;12.10;;;11.70;;
20179;SDS011;10249;48.900;9.090;2023-03-01T00:21:47;12.37;;;11.90;;
20179;SDS011;10249;48.900;9.090;2023-03-01T00:24:14;13.63;;;12.93;;
20179;SDS011;10249;48.900;9.090;2023-03-01T00:26:41;12.30;;;11.90;;
20179;SDS011;10249;48.900;9.090;2023-03-01T00:29:09;17.20;;;15.93;;
20179;SDS011;10249;48.900;9.090;2023-03-01T00:31:37;16.80;;;15.23;;
20179;SDS011;10249;48.900;9.090;2023-03-01T00:34:04;12.27;;;11.77;;
20179;SDS011;10249;48.900;9.090;2023-03-01T00:36:33;10.90;;;10.50;;
20179;SDS011;10249;48.900;9.090;2023-03-01T00:39:00;11.97;;;11.27;;
20179;SDS011;10249;48.900;9.090;2023-03-01T00:41:28;10.73;;;10.33;;
20179;SDS011;10249;48.900;9.090;2023-03-01T00:43:55;13.00;;;12.13;;
20179;SDS011;10249;48.900;9.090;2023-03-01T00:46:23;13.33;;;12.67;;
20179;SDS011;10249;48.900;9.090;2023-03-01T00:48:51;12.10;;;11.70;;
20179;SDS011;10249;48.900;9.090;2023-03-01T00:51:19;13.27;;;12.60;;
20179;SDS011;10249;48.900;9.090;2023-03-01T00:53:49;17.97;;;14.73;;
20179;SDS011;10249;48.900;9.090;2023-03-01T00:56:16;11.43;;;11.03;;
20179;SDS011;10249;48.900;9.090;2023-03-01T00:58:44;10.83;;;10.43;;
20179;SDS011;10249;48.900;9.090;2023-03-01T01:01:12;10.67;;;10.27;;
20179;SDS011;10249;48.900;9.090;2023-03-01T01:03:43;11.40;;;11.00;;
20179;SDS011;10249;48.900;9.090;2023-03-01T01:06:15;10.80;;;10.40;;
20179;SDS011;10249;48.900;9.090;2023-03-01T01:08:43;11.00;;;10.60;;
20179;SDS011;10249;48.900;9.090;2023-03-01T01:11:10;11.07;;;10.67;;
20179;SDS011;10249;48.900;9.090;2023-03-01T01:13:37;11.70;;;11.30;;
20179;SDS011;10249;48.900;9.090;2023-03-01T01:16:04;12.13;;;11.63;;
20179;SDS011;10249;48.900;9.090;2023-03-01T01:18:32;12.97;;;12.47;;
20179;SDS011;10249;48.900;9.090;2023-03-01T01:21:03;10.70;;;10.30;;
20179;SDS011;10249;48.900;9.090;2023-03-01T01:23:31;11.83;;;11.37;;
20179;SDS011;10249;48.900;9.090;2023-03-01T01:26:02;10.50;;;10.10;;
20179;SDS011;10249;48.900;9.090;2023-03-01T01:28:29;10.70;;;10.30;;
20179;SDS011;10249;48.900;9.090;2023-03-01T01:30:56;10.70;;;10.30;;
20179;SDS011;10249;48.900;9.090;2023-03-01T01:33:23;10.70;;;10.30;;
20179;SDS011;10249;48.900;9.090;2023-03-01T01:35:51;10.70;;;10.30;;
20179;SDS011;10249;48.900;9.090;2023-03-01T01:38:18;10.80;;;10.40;;
20179;SDS011;10249;48.900;9.090;2023-03-01T01:40:48;14.97;;;14.27;;
20179;SDS011;10249;48.900;9.090;2023-03-01T01:43:17;16.83;;;15.67;;
20179;SDS011;10249;48.900;9.090;2023-03-01T01:45:44;15.47;;;14.43;;
20179;SDS011;10249;48.900;9.090;2023-03-01T01:48:12;10.37;;;10.07;;
20179;SDS011;10249;48.900;9.090;2023-03-01T01:50:41;10.30;;;10.00;;
20179;SDS011;10249;48.900;9.090;2023-03-01T01:53:10;11.17;;;10.77;;
20179;SDS011;10249;48.900;9.090;2023-03-01T01:55:39;13.27;;;12.20;;
20179;SDS011;10249;48.900;9.090;2023-03-01T01:58:09;16.03;;;14.83;;
20179;SDS011;10249;48.900;9.090;2023-03-01T02:00:37;9.50;;;9.20;;
20179;SDS011;10249;48.900;9.090;2023-03-01T02:03:06;9.80;;;9.50;;
20179;SDS011;10249;48.900;9.090;2023-03-01T02:05:36;9.97;;;9.67;;
20179;SDS011;10249;48.900;9.090;2023-03-01T02:08:05;9.90;;;9.60;;
20179;SDS011;10249;48.900;9.090;2023-03-01T02:10:33;9.90;;;9.60;;
20179;SDS011;10249;48.900;9.090;2023-03-01T02:13:00;10.00;;;9.70;;
20179;SDS011;10249;48.900;9.090;2023-03-01T02:15:30;10.40;;;10.00;;
20179;SDS011;10249;48.900;9.090;2023-03-01T02:17:58;10.30;;;10.00;;
20179;SDS011;10249;48.900;9.090;2023-03-01T02:20:26;14.90;;;13.67;;
20179;SDS011;10249;48.900;9.090;2023-03-01T02:22:55;13.73;;;12.57;;
20179;SDS011;10249;48.900;9.090;2023-03-01T02:28:08;9.40;;;9.10;;
20179;SDS011;10249;48.900;9.090;2023-03-01T02:30:38;9.80;;;9.50;;
20179;SDS011;10249;48.900;9.090;2023-03-01T02:33:26;10.17;;;9.87;;
20179;SDS011;10249;48.900;9.090;2023-03-01T02:35:52;11.00;;;10.60;;
20179;SDS011;10249;48.900;9.090;2023-03-01T02:38:20;10.90;;;10.50;;
20179;SDS011;10249;48.900;9.090;2023-03-01T02:40:48;10.10;;;9.80;;
20179;SDS011;10249;48.900;9.090;2023-03-01T02:43:17;10.20;;;9.90;;
20179;SDS011;10249;48.900;9.090;2023-03-01T02:45:49;12.13;;;11.63;;
20179;SDS011;10249;48.900;9.090;2023-03-01T02:48:16;10.37;;;10.07;;
20179;SDS011;10249;48.900;9.090;2023-03-01T02:50:46;10.90;;;10.50;;
20179;SDS011;10249;48.900;9.090;2023-03-01T02:53:20;10.40;;;10.10;;
20179;SDS011;10249;48.900;9.090;2023-03-01T02:55:50;10.10;;;9.80;;
20179;SDS011;10249;48.900;9.090;2023-03-01T02:58:17;10.20;;;9.90;;
20179;SDS011;10249;48.900;9.090;2023-03-01T03:00:44;10.20;;;9.90;;
20179;SDS011;10249;48.900;9.090;2023-03-01T03:03:14;12.27;;;11.67;;
20179;SDS011;10249;48.900;9.090;2023-03-01T03:05:42;9.90;;;9.60;;
20179;SDS011;10249;48.900;9.090;2023-03-01T03:08:09;10.07;;;9.77;;
20179;SDS011;10249;48.900;9.090;2023-03-01T03:10:37;11.93;;;11.13;;
20179;SDS011;10249;48.900;9.090;2023-03-01T03:13:06;10.10;;;9.80;;
20179;SDS011;10249;48.900;9.090;2023-03-01T03:15:33;10.57;;;10.17;;
20179;SDS011;10249;48.900;9.090;2023-03-01T03:18:01;10.13;;;9.83;;
20179;SDS011;10249;48.900;9.090;2023-03-01T03:20:30;10.93;;;10.53;;
20179;SDS011;10249;48.900;9.090;2023-03-01T03:22:58;11.63;;;11.23;;
20179;SDS011;10249;48.900;9.090;2023-03-01T03:25:26;18.47;;;16.73;;
20179;SDS011;10249;48.900;9.090;2023-03-01T03:27:53;11.90;;;11.30;;
20179;SDS011;10249;48.900;9.090;2023-03-01T03:30:23;10.87;;;10.47;;
20179;SDS011;10249;48.900;9.090;2023-03-01T03:32:51;11.70;;;11.20;;
20179;SDS011;10249;48.900;9.090;2023-03-01T03:35:18;11.97;;;11.43;;
20179;SDS011;10249;48.900;9.090;2023-03-01T03:37:47;13.00;;;12.30;;
20179;SDS011;10249;48.900;9.090;2023-03-01T03:40:32;9.90;;;9.60;;
20179;SDS011;10249;48.900;9.090;2023-03-01T03:43:00;9.40;;;9.10;;
20179;SDS011;10249;48.900;9.090;2023-03-01T03:45:27;9.77;;;9.47;;
20179;SDS011;10249;48.900;9.090;2023-03-01T03:47:54;9.77;;;9.47;;
20179;SDS011;10249;48.900;9.090;2023-03-01T03:50:21;10.00;;;9.70;;
20179;SDS011;10249;48.900;9.090;2023-03-01T03:52:49;11.40;;;11.00;;
20179;SDS011;10249;48.900;9.090;2023-03-01T03:55:16;11.40;;;11.00;;
20179;SDS011;10249;48.900;9.090;2023-03-01T03:57:44;9.90;;;9.60;;
20179;SDS011;10249;48.900;9.090;2023-03-01T04:00:17;10.10;;;9.80;;
20179;SDS011;10249;48.900;9.090;2023-03-01T04:02:44;10.20;;;9.90;;
20179;SDS011;10249;48.900;9.090;2023-03-01T04:05:12;10.10;;;9.80;;
20179;SDS011;10249;48.900;9.090;2023-03-01T04:07:40;11.20;;;10.80;;
20179;SDS011;10249;48.900;9.090;2023-03-01T04:10:10;10.02;;;9.73;;
20179;SDS011;10249;48.900;9.090;2023-03-01T04:12:38;10.00;;;9.70;;
20179;SDS011;10249;48.900;9.090;2023-03-01T04:15:05;10.20;;;9.90;;
20179;SDS011;10249;48.900;9.090;2023-03-01T04:17:38;12.90;;;12.30;;
20179;SDS011;10249;48.900;9.090;2023-03-01T04:20:07;13.57;;;12.40;;
20179;SDS011;10249;48.900;9.090;2023-03-01T04:22:35;9.47;;;9.17;;
20179;SDS011;10249;48.900;9.090;2023-03-01T04:25:02;12.10;;;11.60;;
20179;SDS011;10249;48.900;9.090;2023-03-01T04:27:32;11.20;;;10.70;;
20179;SDS011;10249;48.900;9.090;2023-03-01T04:29:59;11.30;;;10.57;;
20179;SDS011;10249;48.900;9.090;2023-03-01T04:32:26;14.37;;;13.47;;
20179;SDS011;10249;48.900;9.090;2023-03-01T04:34:53;12.90;;;12.40;;
20179;SDS011;10249;48.900;9.090;2023-03-01T04:37:21;13.87;;;12.83;;
20179;SDS011;10249;48.900;9.090;2023-03-01T04:39:49;9.17;;;8.87;;
20179;SDS011;10249;48.900;9.090;2023-03-01T04:42:16;9.30;;;9.00;;
20179;SDS011;10249;48.900;9.090;2023-03-01T04:44:44;9.93;;;9.60;;
20179;SDS011;10249;48.900;9.090;2023-03-01T04:47:12;10.33;;;9.93;;
20179;SDS011;10249;48.900;9.090;2023-03-01T04:49:39;10.83;;;10.43;;
20179;SDS011;10249;48.900;9.090;2023-03-01T04:52:06;9.30;;;9.00;;
20179;SDS011;10249;48.900;9.090;2023-03-01T04:54:34;10.43;;;10.03;;
20179;SDS011;10249;48.900;9.090;2023-03-01T04:57:02;10.00;;;9.70;;
20179;SDS011;10249;48.900;9.090;2023-03-01T04:59:29;9.50;;;9.20;;
20179;SDS011;10249;48.900;9.090;2023-03-01T05:01:58;10.70;;;10.30;;
20179;SDS011;10249;48.900;9.090;2023-03-01T05:04:26;13.50;;;12.40;;
20179;SDS011;10249;48.900;9.090;2023-03-01T05:06:53;18.47;;;16.33;;
20179;SDS011;10249;48.900;9.090;2023-03-01T05:09:21;19.67;;;17.77;;
20179;SDS011;10249;48.900;9.090;2023-03-01T05:11:48;16.70;;;15.27;;
20179;SDS011;10249;48.900;9.090;2023-03-01T05:14:16;12.60;;;11.80;;
20179;SDS011;10249;48.900;9.090;2023-03-01T05:16:43;12.77;;;12.07;;
20179;SDS011;10249;48.900;9.090;2023-03-01T05:19:12;12.13;;;11.40;;
20179;SDS011;10249;48.900;9.090;2023-03-01T05:21:40;15.50;;;14.23;;
20179;SDS011;10249;48.900;9.090;2023-03-01T05:24:21;14.17;;;13.07;;
20179;SDS011;10249;48.900;9.090;2023-03-01T05:26:48;11.53;;;10.90;;
20179;SDS011;10249;48.900;9.090;2023-03-01T05:29:16;11.97;;;11.20;;
20179;SDS011;10249;48.900;9.090;2023-03-01T05:31:49;13.73;;;12.60;;
20179;SDS011;10249;48.900;9.090;2023-03-01T05:34:18;9.53;;;9.23;;
20179;SDS011;10249;48.900;9.090;2023-03-01T05:36:47;9.63;;;9.33;;
20179;SDS011;10249;48.900;9.090;2023-03-01T05:39:16;16.00;;;14.77;;
20179;SDS011;10249;48.900;9.090;2023-03-01T05:41:43;13.57;;;12.33;;
20179;SDS011;10249;48.900;9.090;2023-03-01T05:44:10;10.27;;;9.93;;
20179;SDS011;10249;48.900;9.090;2023-03-01T05:46:38;15.40;;;14.70;;
20179;SDS011;10249;48.900;9.090;2023-03-01T05:49:05;10.10;;;9.80;;
20179;SDS011;10249;48.900;9.090;2023-03-01T05:51:33;10.40;;;10.00;;
20179;SDS011;10249;48.900;9.090;2023-03-01T05:54:01;14.40;;;13.23;;
20179;SDS011;10249;48.900;9.090;2023-03-01T05:56:30;10.00;;;9.70;;
20179;SDS011;10249;48.900;9.090;2023-03-01T05:58:58;10.60;;;10.20;;
20179;SDS011;10249;48.900;9.090;2023-03-01T06:01:25;12.40;;;11.87;;
20179;SDS011;10249;48.900;9.090;2023-03-01T06:03:53;12.57;;;11.97;;
20179;SDS011;10249;48.900;9.090;2023-03-01T06:06:20;12.47;;;11.83;;
20179;SDS011;10249;48.900;9.090;2023-03-01T06:08:49;9.87;;;9.57;;
20179;SDS011;10249;48.900;9.090;2023-03-01T06:11:16;11.63;;;11.13;;
20179;SDS011;10249;48.900;9.090;2023-03-01T06:13:43;11.17;;;10.70;;
20179;SDS011;10249;48.900;9.090;2023-03-01T06:16:10;10.50;;;10.10;;
20179;SDS011;10249;48.900;9.090;2023-03-01T06:18:38;10.40;;;10.00;;
20179;SDS011;10249;48.900;9.090;2023-03-01T06:21:05;16.73;;;15.43;;
20179;SDS011;10249;48.900;9.090;2023-03-01T06:23:33;16.47;;;15.00;;
20179;SDS011;10249;48.900;9.090;2023-03-01T06:26:04;28.13;;;24.20;;
20179;SDS011;10249;48.900;9.090;2023-03-01T06:28:32;13.13;;;12.23;;
20179;SDS011;10249;48.900;9.090;2023-03-01T06:30:59;10.77;;;10.37;;
20179;SDS011;10249;48.900;9.090;2023-03-01T06:33:26;12.67;;;12.10;;
20179;SDS011;10249;48.900;9.090;2023-03-01T06:35:54;10.90;;;10.50;;
20179;SDS011;10249;48.900;9.090;2023-03-01T06:38:21;10.87;;;10.47;;
20179;SDS011;10249;48.900;9.090;2023-03-01T06:40:51;11.13;;;10.73;;
20179;SDS011;10249;48.900;9.090;2023-03-01T06:43:20;14.17;;;13.63;;
20179;SDS011;10249;48.900;9.090;2023-03-01T06:45:48;11.30;;;10.90;;
20179;SDS011;10249;48.900;9.090;2023-03-01T06:48:15;11.57;;;11.17;;
20179;SDS011;10249;48.900;9.090;2023-03-01T06:50:42;11.50;;;11.10;;
20179;SDS011;10249;48.900;9.090;2023-03-01T06:53:09;13.03;;;12.23;;
20179;SDS011;10249;48.900;9.090;2023-03-01T06:55:36;11.80;;;11.40;;
20179;SDS011;10249;48.900;9.090;2023-03-01T06:58:04;12.90;;;12.40;;
20179;SDS011;10249;48.900;9.090;2023-03-01T07:00:32;12.93;;;12.33;;
20179;SDS011;10249;48.900;9.090;2023-03-01T07:03:00;13.30;;;12.70;;
20179;SDS011;10249;48.900;9.090;2023-03-01T07:05:27;13.10;;;12.50;;
20179;SDS011;10249;48.900;9.090;2023-03-01T07:07:55;11.40;;;11.00;;
20179;SDS011;10249;48.900;9.090;2023-03-01T07:10:22;11.15;;;10.75;;
20179;SDS011;10249;48.900;9.090;2023-03-01T07:12:49;11.00;;;10.60;;
20179;SDS011;10249;48.900;9.090;2023-03-01T07:15:16;11.50;;;11.10;;
20179;SDS011;10249;48.900;9.090;2023-03-01T07:17:45;13.57;;;12.98;;
20179;SDS011;10249;48.900;9.090;2023-03-01T07:20:15;11.47;;;11.07;;
20179;SDS011;10249;48.900;9.090;2023-03-01T07:22:42;11.70;;;11.30;;
20179;SDS011;10249;48.900;9.090;2023-03-01T07:25:09;14.57;;;13.67;;
20179;SDS011;10249;48.900;9.090;2023-03-01T07:27:37;13.70;;;13.10;;
20179;SDS011;10249;48.900;9.090;2023-03-01T07:30:04;12.20;;;11.70;;
20179;SDS011;10249;48.900;9.090;2023-03-01T07:32:32;11.47;;;11.07;;
20179;SDS011;10249;48.900;9.090;2023-03-01T07:35:00;12.20;;;11.70;;
20179;SDS011;10249;48.900;9.090;2023-03-01T07:37:27;12.17;;;11.67;;
20179;SDS011;10249;48.900;9.090;2023-03-01T07:39:54;12.40;;;11.90;;
20179;SDS011;10249;48.900;9.090;2023-03-01T07:42:22;12.80;;;12.30;;
20179;SDS011;10249;48.900;9.090;2023-03-01T07:44:49;12.37;;;11.87;;
20179;SDS011;10249;48.900;9.090;2023-03-01T07:47:16;13.00;;;12.50;;
20179;SDS011;10249;48.900;9.090;2023-03-01T07:49:44;13.83;;;13.23;;
20179;SDS011;10249;48.900;9.090;2023-03-01T07:52:12;14.10;;;13.47;;
20179;SDS011;10249;48.900;9.090;2023-03-01T07:54:42;15.27;;;14.50;;
20179;SDS011;10249;48.900;9.090;2023-03-01T07:57:09;13.20;;;12.70;;
20179;SDS011;10249;48.900;9.090;2023-03-01T07:59:36;14.27;;;13.60;;
20179;SDS011;10249;48.900;9.090;2023-03-01T08:02:03;15.07;;;14.37;;
20179;SDS011;10249;48.900;9.090;2023-03-01T08:04:30;21.40;;;19.30;;
20179;SDS011;10249;48.900;9.090;2023-03-01T08:06:58;13.90;;;13.40;;
20179;SDS011;10249;48.900;9.090;2023-03-01T08:09:26;13.93;;;13.20;;
20179;SDS011;10249;48.900;9.090;2023-03-01T08:11:53;13.87;;;13.37;;
20179;SDS011;10249;48.900;9.090;2023-03-01T08:14:24;13.40;;;12.90;;
20179;SDS011;10249;48.900;9.090;2023-03-01T08:16:51;14.30;;;13.70;;
20179;SDS011;10249;48.900;9.090;2023-03-01T08:19:18;13.80;;;13.20;;
20179;SDS011;10249;48.900;9.090;2023-03-01T08:21:45;15.27;;;14.30;;
20179;SDS011;10249;48.900;9.090;2023-03-01T08:24:12;17.03;;;16.20;;
20179;SDS011;10249;48.900;9.090;2023-03-01T08:26:41;14.90;;;14.20;;
20179;SDS011;10249;48.900;9.090;2023-03-01T08:29:08;16.10;;;15.37;;
20179;SDS011;10249;48.900;9.090;2023-03-01T08:31:35;14.70;;;14.10;;
20179;SDS011;10249;48.900;9.090;2023-03-01T08:34:05;14.60;;;14.00;;
20179;SDS011;10249;48.900;9.090;2023-03-01T08:36:35;15.27;;;14.47;;
20179;SDS011;10249;48.900;9.090;2023-03-01T08:39:02;16.93;;;16.23;;
20179;SDS011;10249;48.900;9.090;2023-03-01T08:41:29;15.40;;;14.80;;
20179;SDS011;10249;48.900;9.090;2023-03-01T08:43:58;17.00;;;16.20;;
20179;SDS011;10249;48.900;9.090;2023-03-01T08:46:26;17.33;;;16.33;;
20179;SDS011;10249;48.900;9.090;2023-03-01T08:48:53;17.47;;;16.47;;
20179;SDS011;10249;48.900;9.090;2023-03-01T08:51:21;15.63;;;14.93;;
20179;SDS011;10249;48.900;9.090;2023-03-01T08:53:48;15.80;;;15.10;;
20179;SDS011;10249;48.900;9.090;2023-03-01T08:56:15;16.00;;;15.20;;
20179;SDS011;10249;48.900;9.090;2023-03-01T08:58:43;18.20;;;17.30;;
20179;SDS011;10249;48.900;9.090;2023-03-01T09:01:13;15.77;;;15.07;;
20179;SDS011;10249;48.900;9.090;2023-03-01T09:03:40;15.63;;;14.93;;
20179;SDS011;10249;48.900;9.090;2023-03-01T09:06:08;16.00;;;15.30;;
20179;SDS011;10249;48.900;9.090;2023-03-01T09:08:35;14.83;;;14.23;;
20179;SDS011;10249;48.900;9.090;2023-03-01T09:11:02;17.57;;;16.77;;
20179;SDS011;10249;48.900;9.090;2023-03-01T09:13:30;15.93;;;15.13;;
20179;SDS011;10249;48.900;9.090;2023-03-01T09:15:57;15.60;;;14.90;;
20179;SDS011;10249;48.900;9.090;2023-03-01T09:18:26;15.73;;;15.03;;
20179;SDS011;10249;48.900;9.090;2023-03-01T09:20:53;16.13;;;15.43;;
20179;SDS011;10249;48.900;9.090;2023-03-01T09:23:21;16.43;;;15.67;;
20179;SDS011;10249;48.900;9.090;2023-03-01T09:25:48;18.27;;;16.90;;
20179;SDS011;10249;48.900;9.090;2023-03-01T09:28:15;18.73;;;17.87;;
20179;SDS011;10249;48.900;9.090;2023-03-01T09:30:42;15.70;;;15.00;;
20179;SDS011;10249;48.900;9.090;2023-03-01T09:33:09;16.93;;;16.13;;
20179;SDS011;10249;48.900;9.090;2023-03-01T09:35:40;17.57;;;16.53;;
20179;SDS011;10249;48.900;9.090;2023-03-01T09:38:12;15.47;;;14.77;;
20179;SDS011;10249;48.900;9.090;2023-03-01T09:40:41;20.20;;;19.00;;
20179;SDS011;10249;48.900;9.090;2023-03-01T09:43:13;16.10;;;15.40;;
20179;SDS011;10249;48.900;9.090;2023-03-01T09:45:43;17.60;;;16.67;;
20179;SDS011;10249;48.900;9.090;2023-03-01T09:48:13;16.27;;;15.43;;
20179;SDS011;10249;48.900;9.090;2023-03-01T09:50:43;16.83;;;16.03;;
20179;SDS011;10249;48.900;9.090;2023-03-01T09:53:13;23.30;;;21.47;;
20179;SDS011;10249;48.900;9.090;2023-03-01T09:55:43;15.90;;;15.20;;
20179;SDS011;10249;48.900;9.090;2023-03-01T09:58:20;16.50;;;15.70;;
20179;SDS011;10249;48.900;9.090;2023-03-01T10:00:52;16.03;;;15.33;;
20179;SDS011;10249;48.900;9.090;2023-03-01T10:03:21;16.00;;;15.30;;
20179;SDS011;10249;48.900;9.090;2023-03-01T10:05:54;22.33;;;20.90;;
20179;SDS011;10249;48.900;9.090;2023-03-01T10:08:27;19.37;;;18.03;;
20179;SDS011;10249;48.900;9.090;2023-03-01T10:10:56;16.57;;;15.77;;
20179;SDS011;10249;48.900;9.090;2023-03-01T10:13:25;17.37;;;16.47;;
20179;SDS011;10249;48.900;9.090;2023-03-01T10:15:54;21.33;;;19.60;;
20179;SDS011;10249;48.900;9.090;2023-03-01T10:18:23;17.20;;;16.40;;
20179;SDS011;10249;48.900;9.090;2023-03-01T10:20:52;15.70;;;15.00;;
20179;SDS011;10249;48.900;9.090;2023-03-01T10:23:21;18.73;;;17.40;;
20179;SDS011;10249;48.900;9.090;2023-03-01T10:25:53;17.77;;;16.93;;
20179;SDS011;10249;48.900;9.090;2023-03-01T10:28:25;17.20;;;16.40;;
20179;SDS011;10249;48.900;9.090;2023-03-01T10:30:52;16.90;;;16.00;;
20179;SDS011;10249;48.900;9.090;2023-03-01T10:33:20;16.40;;;15.60;;
20179;SDS011;10249;48.900;9.090;2023-03-01T10:35:48;17.57;;;16.67;;
20179;SDS011;10249;48.900;9.090;2023-03-01T10:38:15;16.10;;;15.30;;
20179;SDS011;10249;48.900;9.090;2023-03-01T10:40:51;17.87;;;16.87;;
20179;SDS011;10249;48.900;9.090;2023-03-01T10:43:18;16.10;;;15.30;;
20179;SDS011;10249;48.900;9.090;2023-03-01T10:45:46;18.93;;;17.13;;
20179;SDS011;10249;48.900;9.090;2023-03-01T10:48:14;19.00;;;17.63;;
20179;SDS011;10249;48.900;9.090;2023-03-01T10:50:42;16.10;;;15.33;;
20179;SDS011;10249;48.900;9.090;2023-03-01T10:53:18;15.93;;;15.20;;
20179;SDS011;10249;48.900;9.090;2023-03-01T10:55:47;16.30;;;15.50;;
20179;SDS011;10249;48.900;9.090;2023-03-01T10:58:19;18.00;;;16.87;;
20179;SDS011;10249;48.900;9.090;2023-03-01T11:00:47;18.40;;;17.60;;
20179;SDS011;10249;48.900;9.090;2023-03-01T11:03:16;17.33;;;16.47;;
20179;SDS011;10249;48.900;9.090;2023-03-01T11:05:50;19.30;;;18.00;;
20179;SDS011;10249;48.900;9.090;2023-03-01T11:08:29;15.90;;;15.10;;
20179;SDS011;10249;48.900;9.090;2023-03-01T11:11:03;19.00;;;17.67;;
20179;SDS011;10249;48.900;9.090;2023-03-01T11:13:32;16.00;;;15.20;;
20179;SDS011;10249;48.900;9.090;2023-03-01T11:15:59;15.97;;;15.17;;
20179;SDS011;10249;48.900;9.090;2023-03-01T11:18:26;16.40;;;15.60;;
20179;SDS011;10249;48.900;9.090;2023-03-01T11:20:55;18.00;;;17.07;;
20179;SDS011;10249;48.900;9.090;2023-03-01T11:23:22;20.00;;;18.47;;
20179;SDS011;10249;48.900;9.090;2023-03-01T11:25:53;17.77;;;16.80;;
20179;SDS011;10249;48.900;9.090;2023-03-01T11:28:21;17.10;;;16.20;;
20179;SDS011;10249;48.900;9.090;2023-03-01T11:30:53;17.73;;;16.83;;
20179;SDS011;10249;48.900;9.090;2023-03-01T11:33:24;16.13;;;15.33;;
20179;SDS011;10249;48.900;9.090;2023-03-01T11:36:01;20.40;;;18.53;;
20179;SDS011;10249;48.900;9.090;2023-03-01T11:38:30;17.60;;;16.50;;
20179;SDS011;10249;48.900;9.090;2023-03-01T11:41:00;17.43;;;16.53;;
20179;SDS011;10249;48.900;9.090;2023-03-01T11:43:31;24.03;;;21.83;;
20179;SDS011;10249;48.900;9.090;2023-03-01T11:48:46;17.87;;;16.40;;
20179;SDS011;10249;48.900;9.090;2023-03-01T11:51:18;16.70;;;15.80;;
20179;SDS011;10249;48.900;9.090;2023-03-01T11:53:50;17.97;;;16.63;;
20179;SDS011;10249;48.900;9.090;2023-03-01T11:56:23;16.90;;;16.00;;
20179;SDS011;10249;48.900;9.090;2023-03-01T11:58:56;18.17;;;17.17;;
20179;SDS011;10249;48.900;9.090;2023-03-01T12:01:28;17.97;;;17.00;;
20179;SDS011;10249;48.900;9.090;2023-03-01T12:04:04;17.40;;;16.50;;
20179;SDS011;10249;48.900;9.090;2023-03-01T12:06:45;17.97;;;16.97;;
20179;SDS011;10249;48.900;9.090;2023-03-01T12:09:22;19.77;;;18.67;;
20179;SDS011;10249;48.900;9.090;2023-03-01T12:12:02;17.20;;;16.30;;
20179;SDS011;10249;48.900;9.090;2023-03-01T12:14:41;17.30;;;16.40;;
20179;SDS011;10249;48.900;9.090;2023-03-01T12:20:05;19.00;;;17.70;;
20179;SDS011;10249;48.900;9.090;2023-03-01T12:22:35;19.30;;;18.13;;
20179;SDS011;10249;48.900;9.090;2023-03-01T12:25:10;18.50;;;17.60;;
20179;SDS011;10249;48.900;9.090;2023-03-01T12:27:47;17.70;;;16.80;;
20179;SDS011;10249;48.900;9.090;2023-03-01T12:30:21;19.53;;;18.43;;
20179;SDS011;10249;48.900;9.090;2023-03-01T12:32:52;17.50;;;16.53;;
20179;SDS011;10249;48.900;9.090;2023-03-01T12:35:32;19.45;;;18.25;;
20179;SDS011;10249;48.900;9.090;2023-03-01T12:38:06;22.00;;;20.30;;
20179;SDS011;10249;48.900;9.090;2023-03-01T12:43:22;17.70;;;16.77;;
20179;SDS011;10249;48.900;9.090;2023-03-01T12:46:00;19.90;;;18.70;;
20179;SDS011;10249;48.900;9.090;2023-03-01T12:48:35;16.63;;;15.73;;
20179;SDS011;10249;48.900;9.090;2023-03-01T12:51:08;16.93;;;16.03;;
20179;SDS011;10249;48.900;9.090;2023-03-01T12:53:36;16.80;;;15.90;;
20179;SDS011;10249;48.900;9.090;2023-03-01T12:56:06;16.30;;;15.40;;
20179;SDS011;10249;48.900;9.090;2023-03-01T12:58:35;18.33;;;17.07;;
20179;SDS011;10249;48.900;9.090;2023-03-01T13:01:10;18.00;;;16.97;;
20179;SDS011;10249;48.900;9.090;2023-03-01T13:03:46;18.53;;;17.23;;
20179;SDS011;10249;48.900;9.090;2023-03-01T13:06:17;17.57;;;16.47;;
20179;SDS011;10249;48.900;9.090;2023-03-01T13:08:47;25.47;;;23.03;;
20179;SDS011;10249;48.900;9.090;2023-03-01T13:11:17;16.00;;;15.10;;
20179;SDS011;10249;48.900;9.090;2023-03-01T13:13:45;18.90;;;17.80;;
20179;SDS011;10249;48.900;9.090;2023-03-01T13:16:20;18.03;;;16.93;;
20179;SDS011;10249;48.900;9.090;2023-03-01T13:18:48;17.87;;;16.87;;
20179;SDS011;10249;48.900;9.090;2023-03-01T13:21:29;19.00;;;17.90;;
20179;SDS011;10249;48.900;9.090;2023-03-01T13:23:56;17.20;;;16.20;;
20179;SDS011;10249;48.900;9.090;2023-03-01T13:26:23;22.97;;;21.10;;
20179;SDS011;10249;48.900;9.090;2023-03-01T13:28:54;19.87;;;18.87;;
20179;SDS011;10249;48.900;9.090;2023-03-01T13:34:17;19.17;;;17.97;;
20179;SDS011;10249;48.900;9.090;2023-03-01T13:37:17;28.87;;;26.27;;
20179;SDS011;10249;48.900;9.090;2023-03-01T13:39:45;22.33;;;20.57;;
20179;SDS011;10249;48.900;9.090;2023-03-01T13:42:30;19.10;;;17.80;;
20179;SDS011;10249;48.900;9.090;2023-03-01T13:44:58;18.77;;;17.53;;
20179;SDS011;10249;48.900;9.090;2023-03-01T13:47:25;21.07;;;19.40;;
20179;SDS011;10249;48.900;9.090;2023-03-01T13:49:55;19.57;;;18.37;;
20179;SDS011;10249;48.900;9.090;2023-03-01T13:52:32;18.17;;;17.00;;
20179;SDS011;10249;48.900;9.090;2023-03-01T13:55:03;23.50;;;21.63;;
20179;SDS011;10249;48.900;9.090;2023-03-01T13:57:32;22.20;;;20.53;;
20179;SDS011;10249;48.900;9.090;2023-03-01T13:59:59;17.23;;;16.23;;
20179;SDS011;10249;48.900;9.090;2023-03-01T14:02:27;16.30;;;15.50;;
20179;SDS011;10249;48.900;9.090;2023-03-01T14:04:57;17.40;;;16.40;;
20179;SDS011;10249;48.900;9.090;2023-03-01T14:07:25;16.70;;;15.77;;
20179;SDS011;10249;48.900;9.090;2023-03-01T14:09:56;23.27;;;20.97;;
20179;SDS011;10249;48.900;9.090;2023-03-01T14:12:35;20.57;;;18.70;;
20179;SDS011;10249;48.900;9.090;2023-03-01T14:15:06;18.03;;;17.00;;
20179;SDS011;10249;48.900;9.090;2023-03-01T14:17:55;17.53;;;16.57;;
20179;SDS011;10249;48.900;9.090;2023-03-01T14:20:26;18.40;;;17.20;;
20179;SDS011;10249;48.900;9.090;2023-03-01T14:22:54;17.43;;;16.30;;
20179;SDS011;10249;48.900;9.090;2023-03-01T14:25:24;17.50;;;16.50;;
20179;SDS011;10249;48.900;9.090;2023-03-01T14:27:56;19.33;;;18.00;;
20179;SDS011;10249;48.900;9.090;2023-03-01T14:30:24;22.73;;;21.10;;
20179;SDS011;10249;48.900;9.090;2023-03-01T14:32:52;18.60;;;17.50;;
20179;SDS011;10249;48.900;9.090;2023-03-01T14:35:20;21.13;;;19.73;;
20179;SDS011;10249;48.900;9.090;2023-03-01T14:37:48;20.50;;;19.03;;
20179;SDS011;10249;48.900;9.090;2023-03-01T14:40:20;20.47;;;19.00;;
20179;SDS011;10249;48.900;9.090;2023-03-01T14:42:48;19.47;;;18.30;;
20179;SDS011;10249;48.900;9.090;2023-03-01T14:45:16;20.80;;;19.27;;
20179;SDS011;10249;48.900;9.090;2023-03-01T14:47:43;22.40;;;20.70;;
20179;SDS011;10249;48.900;9.090;2023-03-01T14:50:14;19.80;;;18.60;;